Time;durP1;ratioP1;P1;durP2;ratioP2;P2;SDS_P1;SDS_P2;PMS_P1;PMS_P2;Temp;Humidity;BMP_temperature;BMP_pressure;BME280_temperature;BME280_humidity;BME280_pressure;Samples;Min_cycle;Max_cycle;Signal;HPM_P1;HPM_P2
2024/03/07 00:01:26;;;;;;;;;;;;;;;;;;5041690;28;19920;-76
2024/03/07 00:03:52;;;;;;;;;;;;;;;;;;5047125;28;19980;-76
2024/03/07 00:06:18;;;;;;;;;;;;;;;;;;5047067;28;19920;-76
2024/03/07 00:08:44;;;;;;;;;;;;;;;;;;5046088;28;20363;-76
2024/03/07 00:11:09;;;;;;;;;;;;;;;;;;5046642;28;20327;-76
2024/03/07 00:13:38;;;;;;;;;;;;;;;;;;5041056;28;19940;-76
2024/03/07 00:16:04;;;;;;;;;;;;;;;;;;5043556;28;19917;-77
2024/03/07 00:18:30;;;;;;;;;;;;;;;;;;5044379;28;19917;-76
2024/03/07 00:20:56;;;;;;;;;;;;;;;;;;5041783;28;19913;-76
2024/03/07 00:23:21;;;;;;;;;;;;;;;;;;5049787;28;19917;-76
2024/03/07 00:25:49;;;;;;;;;;;;;;;;;;5044990;28;19931;-76
2024/03/07 00:28:17;;;;;;;;;;;;;;;;;;5043824;28;20066;-75
2024/03/07 00:30:44;;;;;;;;;;;;;;;;;;5042832;28;19924;-75
2024/03/07 00:33:10;;;;;;;;;;;;;;;;;;5050666;28;20256;-75
2024/03/07 00:35:36;;;;;;;;;;;;;;;;;;5044253;28;19923;-75
2024/03/07 00:38:02;;;;;;;;;;;;;;;;;;5041911;28;20434;-75
2024/03/07 00:40:28;;;;;;;;;;;;;;;;;;5045612;28;19967;-75
2024/03/07 00:42:54;;;;;;;;;;;;;;;;;;5051022;28;19912;-75
2024/03/07 00:45:20;;;;;;;;;;;;;;;;;;5049733;28;19927;-75
2024/03/07 00:47:48;;;;;;;;;;;;;;;;;;5045215;28;20023;-75
2024/03/07 00:50:14;;;;;;;;;;;;;;;;;;5035729;28;19924;-75
2024/03/07 00:52:40;;;;;;;;;;;;;;;;;;5040981;28;19917;-75
2024/03/07 00:55:08;;;;;;;;;;;;;;;;;;5047866;28;19913;-75
2024/03/07 00:57:34;;;;;;;;;;;;;;;;;;5044891;28;19916;-75
2024/03/07 01:00:00;;;;;;;;;;;;;;;;;;5039066;28;19932;-75
2024/03/07 01:02:26;;;;;;;;;;;;;;;;;;5045242;28;20027;-75
2024/03/07 01:04:53;;;;;;;;;;;;;;;;;;5047715;28;19917;-75
2024/03/07 01:07:19;;;;;;;;;;;;;;;;;;5046293;28;19924;-76
2024/03/07 01:09:45;;;;;;;;;;;;;;;;;;5048941;28;19913;-76
2024/03/07 01:12:11;;;;;;;;;;;;;;;;;;5050063;28;19916;-76
2024/03/07 01:14:37;;;;;;;;;;;;;;;;;;5049252;28;19917;-76
2024/03/07 01:17:03;;;;;;;;;;;;;;;;;;5042876;28;19936;-76
2024/03/07 01:19:28;;;;;;;;;;;;;;;;;;5047258;28;19921;-76
2024/03/07 01:21:55;;;;;;;;;;;;;;;;;;5045434;28;19920;-76
2024/03/07 01:24:20;;;;;;;;;;;;;;;;;;5043261;28;19965;-76
2024/03/07 01:26:46;;;;;;;;;;;;;;;;;;5052894;28;19916;-76
2024/03/07 01:29:13;;;;;;;;;;;;;;;;;;5047176;28;19917;-76
2024/03/07 01:31:39;;;;;;;;;;;;;;;;;;5050663;28;19913;-76
2024/03/07 01:34:05;;;;;;;;;;;;;;;;;;5052930;28;20345;-76
2024/03/07 01:36:31;;;;;;;;;;;;;;;;;;5048934;28;19917;-76
2024/03/07 01:38:57;;;;;;;;;;;;;;;;;;5042674;28;19912;-76
2024/03/07 01:41:22;;;;;;;;;;;;;;;;;;5050198;28;19924;-76
2024/03/07 01:43:48;;;;;;;;;;;;;;;;;;5049375;28;20294;-75
2024/03/07 01:46:14;;;;;;;;;;;;;;;;;;5044354;28;20036;-76
2024/03/07 01:48:40;;;;;;;;;;;;;;;;;;5046197;28;19916;-76
2024/03/07 01:51:06;;;;;;;;;;;;;;;;;;5044298;28;19912;-76
2024/03/07 01:53:32;;;;;;;;;;;;;;;;;;5043036;28;19955;-76
2024/03/07 01:55:58;;;;;;;;;;;;;;;;;;5043224;28;19912;-76
2024/03/07 01:58:24;;;;;;;;;;;;;;;;;;5047109;28;20007;-76
2024/03/07 02:00:50;;;;;;;;;;;;;;;;;;5047442;28;19927;-76
2024/03/07 02:03:15;;;;;;;;;;;;;;;;;;5041818;28;19913;-76
2024/03/07 02:05:41;;;;;;;;;;;;;;;;;;5047982;28;19955;-76
2024/03/07 02:08:07;;;;;;;;;;;;;;;;;;5044134;28;19917;-76
2024/03/07 02:10:33;;;;;;;;;;;;;;;;;;5039844;28;19931;-76
2024/03/07 02:13:00;;;;;;;;;;;;;;;;;;5049224;28;19920;-76
2024/03/07 02:15:26;;;;;;;;;;;;;;;;;;5048297;28;19917;-76
2024/03/07 02:17:52;;;;;;;;;;;;;;;;;;5043030;28;19923;-76
2024/03/07 02:20:18;;;;;;;;;;;;;;;;;;5046378;28;19968;-76
2024/03/07 02:22:44;;;;;;;;;;;;;;;;;;5047574;28;19944;-76
2024/03/07 02:25:10;;;;;;;;;;;;;;;;;;5045592;28;20338;-76
2024/03/07 02:27:36;;;;;;;;;;;;;;;;;;5041901;28;19917;-76
2024/03/07 02:30:04;;;;;;;;;;;;;;;;;;5041036;28;19920;-76
2024/03/07 02:32:29;;;;;;;;;;;;;;;;;;5046388;28;19940;-76
2024/03/07 02:34:55;;;;;;;;;;;;;;;;;;5037354;28;20371;-76
2024/03/07 02:37:21;;;;;;;;;;;;;;;;;;5047509;28;20367;-76
2024/03/07 02:39:47;;;;;;;;;;;;;;;;;;5042538;28;20382;-76
2024/03/07 02:42:13;;;;;;;;;;;;;;;;;;5044115;28;20364;-76
2024/03/07 02:44:39;;;;;;;;;;;;;;;;;;5046139;28;19998;-76
2024/03/07 02:47:04;;;;;;;;;;;;;;;;;;5043160;28;19936;-76
2024/03/07 02:49:30;;;;;;;;;;;;;;;;;;5043129;28;19916;-76
2024/03/07 02:51:56;;;;;;;;;;;;;;;;;;5046198;28;20438;-76
2024/03/07 02:54:22;;;;;;;;;;;;;;;;;;5045674;28;19913;-76
2024/03/07 02:56:48;;;;;;;;;;;;;;;;;;5043071;28;19959;-76
2024/03/07 02:59:14;;;;;;;;;;;;;;;;;;5043892;28;19956;-76
2024/03/07 03:01:40;;;;;;;;;;;;;;;;;;5041020;28;19920;-76
2024/03/07 03:04:06;;;;;;;;;;;;;;;;;;5045462;28;19921;-76
2024/03/07 03:06:32;;;;;;;;;;;;;;;;;;5043593;28;20375;-76
2024/03/07 03:08:58;;;;;;;;;;;;;;;;;;5054527;28;20268;-76
2024/03/07 03:11:25;;;;;;;;;;;;;;;;;;5039897;28;19913;-76
2024/03/07 03:13:51;;;;;;;;;;;;;;;;;;5046774;28;19963;-76
2024/03/07 03:16:17;;;;;;;;;;;;;;;;;;5041790;28;19920;-75
2024/03/07 03:18:43;;;;;;;;;;;;;;;;;;5042044;28;19925;-75
2024/03/07 03:21:09;;;;;;;;;;;;;;;;;;5043352;28;19920;-76
2024/03/07 03:23:35;;;;;;;;;;;;;;;;;;5043960;28;20334;-76
2024/03/07 03:26:01;;;;;;;;;;;;;;;;;;5045774;28;19913;-75
2024/03/07 03:28:27;;;;;;;;;;;;;;;;;;5040416;28;19917;-78
2024/03/07 03:30:53;;;;;;;;;;;;;;;;;;5039703;28;20379;-83
2024/03/07 03:33:20;;;;;;;;;;;;;;;;;;5043785;28;19923;-75
2024/03/07 03:35:46;;;;;;;;;;;;;;;;;;5045727;28;20071;-75
2024/03/07 03:38:12;;;;;;;;;;;;;;;;;;5049188;28;19929;-76
2024/03/07 03:40:38;;;;;;;;;;;;;;;;;;5046724;28;19913;-75
2024/03/07 03:43:03;;;;;;;;;;;;;;;;;;5045981;28;19913;-76
2024/03/07 03:45:30;;;;;;;;;;;;;;;;;;5043562;28;20359;-77
2024/03/07 03:47:56;;;;;;;;;;;;;;;;;;5041494;28;19917;-76
2024/03/07 03:50:23;;;;;;;;;;;;;;;;;;5039961;28;19917;-75
2024/03/07 03:52:49;;;;;;;;;;;;;;;;;;5034062;28;19963;-74
2024/03/07 03:55:15;;;;;;;;;;;;;;;;;;5037348;28;19913;-74
2024/03/07 03:57:41;;;;;;;;;;;;;;;;;;5042929;28;19927;-75
2024/03/07 04:00:12;;;;;;;;;;;;;;;;;;5040125;28;19921;-74
2024/03/07 04:02:38;;;;;;;;;;;;;;;;;;5044763;28;19966;-75
2024/03/07 04:05:04;;;;;;;;;;;;;;;;;;5042088;28;19913;-75
2024/03/07 04:07:31;;;;;;;;;;;;;;;;;;5043401;28;19928;-74
2024/03/07 04:09:57;;;;;;;;;;;;;;;;;;5041820;28;19959;-74
2024/03/07 04:12:23;;;;;;;;;;;;;;;;;;5044425;28;19925;-74
2024/03/07 04:14:49;;;;;;;;;;;;;;;;;;5042587;28;19928;-74
2024/03/07 04:17:15;;;;;;;;;;;;;;;;;;5041373;28;19921;-74
2024/03/07 04:19:41;;;;;;;;;;;;;;;;;;5041884;28;20010;-74
2024/03/07 04:22:08;;;;;;;;;;;;;;;;;;5045239;28;19924;-75
2024/03/07 04:24:33;;;;;;;;;;;;;;;;;;5044800;28;19921;-74
2024/03/07 04:27:00;;;;;;;;;;;;;;;;;;5041982;28;20586;-74
2024/03/07 04:29:26;;;;;;;;;;;;;;;;;;5040768;28;19917;-74
2024/03/07 04:31:52;;;;;;;;;;;;;;;;;;5042325;28;19917;-74
2024/03/07 04:34:17;;;;;;;;;;;;;;;;;;5044254;28;19924;-75
2024/03/07 04:36:43;;;;;;;;;;;;;;;;;;5042795;28;20382;-75
2024/03/07 04:39:22;;;;;;;;;;;;;;;;;;5040549;28;19932;-74
2024/03/07 04:41:48;;;;;;;;;;;;;;;;;;5038500;28;19972;-75
2024/03/07 04:44:13;;;;;;;;;;;;;;;;;;5042293;28;20006;-75
2024/03/07 04:46:42;;;;;;;;;;;;;;;;;;5044571;28;19936;-75
2024/03/07 04:49:09;;;;;;;;;;;;;;;;;;5044201;28;19913;-75
2024/03/07 04:51:34;;;;;;;;;;;;;;;;;;5045945;28;20387;-75
2024/03/07 04:54:00;;;;;;;;;;;;;;;;;;5038475;28;19961;-76
2024/03/07 04:56:26;;;;;;;;;;;;;;;;;;5039127;28;20364;-74
2024/03/07 04:58:53;;;;;;;;;;;;;;;;;;5050679;28;19924;-76
2024/03/07 05:01:19;;;;;;;;;;;;;;;;;;5040257;28;20364;-76
2024/03/07 05:03:45;;;;;;;;;;;;;;;;;;5049546;28;20375;-76
2024/03/07 05:06:11;;;;;;;;;;;;;;;;;;5044302;28;19916;-76
2024/03/07 05:08:37;;;;;;;;;;;;;;;;;;5045846;28;19923;-79
2024/03/07 05:11:04;;;;;;;;;;;;;;;;;;5049175;28;19944;-78
2024/03/07 05:13:31;;;;;;;;;;;;;;;;;;5048527;28;19974;-76
2024/03/07 05:15:57;;;;;;;;;;;;;;;;;;5050306;28;20008;-75
2024/03/07 05:18:23;;;;;;;;;;;;;;;;;;5038661;28;19928;-75
2024/03/07 05:20:49;;;;;;;;;;;;;;;;;;5043966;28;19928;-75
2024/03/07 05:23:14;;;;;;;;;;;;;;;;;;5050904;28;19916;-76
2024/03/07 05:25:41;;;;;;;;;;;;;;;;;;5047679;28;19917;-76
2024/03/07 05:28:07;;;;;;;;;;;;;;;;;;5047991;28;19916;-76
2024/03/07 05:30:33;;;;;;;;;;;;;;;;;;5051032;28;20398;-76
2024/03/07 05:33:01;;;;;;;;;;;;;;;;;;5049114;28;19923;-76
2024/03/07 05:35:29;;;;;;;;;;;;;;;;;;5050179;28;19925;-76
2024/03/07 05:37:56;;;;;;;;;;;;;;;;;;5049400;28;20421;-76
2024/03/07 05:40:22;;;;;;;;;;;;;;;;;;5051151;28;19954;-76
2024/03/07 05:42:48;;;;;;;;;;;;;;;;;;5050697;28;19908;-76
2024/03/07 05:45:14;;;;;;;;;;;;;;;;;;5049816;28;19996;-76
2024/03/07 05:47:40;;;;;;;;;;;;;;;;;;5050588;28;19928;-76
2024/03/07 05:50:07;;;;;;;;;;;;;;;;;;5050292;28;20291;-76
2024/03/07 05:52:33;;;;;;;;;;;;;;;;;;5048191;28;20106;-76
2024/03/07 05:54:59;;;;;;;;;;;;;;;;;;5035990;28;20618;-76
2024/03/07 05:57:25;;;;;;;;;;;;;;;;;;5043781;28;19913;-76
2024/03/07 05:59:50;;;;;;;;;;;;;;;;;;5044080;28;19916;-76
2024/03/07 06:02:16;;;;;;;;;;;;;;;;;;5041765;28;20006;-76
2024/03/07 06:04:43;;;;;;;;;;;;;;;;;;5048821;28;19917;-76
2024/03/07 06:07:10;;;;;;;;;;;;;;;;;;5043221;28;20287;-76
2024/03/07 06:09:36;;;;;;;;;;;;;;;;;;5051918;28;19916;-76
2024/03/07 06:12:04;;;;;;;;;;;;;;;;;;5041845;28;19913;-76
2024/03/07 06:14:33;;;;;;;;;;;;;;;;;;5044596;28;19917;-76
2024/03/07 06:17:00;;;;;;;;;;;;;;;;;;5051799;28;19952;-78
2024/03/07 06:19:26;;;;;;;;;;;;;;;;;;5046959;28;19924;-75
2024/03/07 06:21:53;;;;;;;;;;;;;;;;;;5045910;28;20367;-77
2024/03/07 06:24:22;;;;;;;;;;;;;;;;;;5042850;28;19948;-78
2024/03/07 06:26:59;;;;;;;;;;;;;;;;;;5039674;28;19913;-75
2024/03/07 06:29:24;;;;;;;;;;;;;;;;;;5049161;28;19916;-77
2024/03/07 06:31:54;;;;;;;;;;;;;;;;;;5051710;28;21255;-77
2024/03/07 06:34:20;;;;;;;;;;;;;;;;;;5047380;28;20072;-77
2024/03/07 06:36:46;;;;;;;;;;;;;;;;;;5047485;28;19920;-77
2024/03/07 06:39:11;;;;;;;;;;;;;;;;;;5051172;28;19913;-77
2024/03/07 06:41:37;;;;;;;;;;;;;;;;;;5049593;28;19909;-77
2024/03/07 06:44:03;;;;;;;;;;;;;;;;;;5055133;28;20276;-77
2024/03/07 06:46:29;;;;;;;;;;;;;;;;;;5059981;28;19912;-77
2024/03/07 06:48:58;;;;;;;;;;;;;;;;;;5061941;28;19919;-77
2024/03/07 06:51:24;;;;;;;;;;;;;;;;;;5049014;28;19962;-77
2024/03/07 06:53:50;;;;;;;;;;;;;;;;;;5048744;28;20199;-77
2024/03/07 06:56:16;;;;;;;;;;;;;;;;;;5048665;28;19917;-77
2024/03/07 06:58:42;;;;;;;;;;;;;;;;;;5049420;28;20395;-77
2024/03/07 07:01:10;;;;;;;;;;;;;;;;;;5049183;28;20287;-76
2024/03/07 07:03:36;;;;;;;;;;;;;;;;;;5045531;28;20300;-77
2024/03/07 07:06:02;;;;;;;;;;;;;;;;;;5030903;28;19910;-77
2024/03/07 07:08:30;;;;;;;;;;;;;;;;;;5037916;28;20287;-77
2024/03/07 07:10:57;;;;;;;;;;;;;;;;;;5040963;28;19912;-77
2024/03/07 07:13:23;;;;;;;;;;;;;;;;;;5043520;28;20417;-77
2024/03/07 07:15:49;;;;;;;;;;;;;;;;;;5048862;28;19959;-78
2024/03/07 07:18:15;;;;;;;;;;;;;;;;;;5048519;28;19920;-77
2024/03/07 07:20:41;;;;;;;;;;;;;;;;;;5048332;28;19923;-77
2024/03/07 07:23:07;;;;;;;;;;;;;;;;;;5063882;28;19909;-77
2024/03/07 07:25:33;;;;;;;;;;;;;;;;;;5039421;28;19923;-77
2024/03/07 07:27:58;;;;;;;;;;;;;;;;;;5034481;28;19925;-77
2024/03/07 07:30:25;;;;;;;;;;;;;;;;;;5035397;28;19917;-77
2024/03/07 07:32:51;;;;;;;;;;;;;;;;;;5042850;28;19925;-76
2024/03/07 07:35:17;;;;;;;;;;;;;;;;;;5046560;28;19912;-76
2024/03/07 07:37:43;;;;;;;;;;;;;;;;;;5046267;28;20333;-76
2024/03/07 07:40:09;;;;;;;;;;;;;;;;;;5047110;28;19978;-75
2024/03/07 07:42:35;;;;;;;;;;;;;;;;;;5048364;28;19921;-75
2024/03/07 07:45:01;;;;;;;;;;;;;;;;;;5041103;28;19917;-74
2024/03/07 07:47:27;;;;;;;;;;;;;;;;;;5064287;28;20390;-75
2024/03/07 07:49:53;;;;;;;;;;;;;;;;;;5068672;28;19912;-75
2024/03/07 07:52:19;;;;;;;;;;;;;;;;;;5068452;28;20409;-74
2024/03/07 07:54:45;;;;;;;;;;;;;;;;;;5055642;28;20379;-75
2024/03/07 07:57:10;;;;;;;;;;;;;;;;;;5043433;28;20384;-75
2024/03/07 07:59:36;;;;;;;;;;;;;;;;;;5045173;28;20299;-75
2024/03/07 08:02:06;;;;;;;;;;;;;;;;;;5047363;28;19917;-75
2024/03/07 08:04:32;;;;;;;;;;;;;;;;;;5047031;28;20107;-75
2024/03/07 08:06:58;;;;;;;;;;;;;;;;;;5049903;28;19944;-75
2024/03/07 08:09:24;;;;;;;;;;;;;;;;;;5045132;28;20553;-75
2024/03/07 08:11:50;;;;;;;;;;;;;;;;;;5044897;28;19913;-75
2024/03/07 08:14:16;;;;;;;;;;;;;;;;;;5041166;28;20394;-75
2024/03/07 08:16:42;;;;;;;;;;;;;;;;;;5047794;28;19913;-74
2024/03/07 08:19:08;;;;;;;;;;;;;;;;;;5043732;28;19921;-75
2024/03/07 08:21:34;;;;;;;;;;;;;;;;;;5044931;28;20398;-75
2024/03/07 08:24:03;;;;;;;;;;;;;;;;;;5041574;28;20375;-75
2024/03/07 08:26:29;;;;;;;;;;;;;;;;;;5047049;28;19917;-75
2024/03/07 08:28:55;;;;;;;;;;;;;;;;;;5048101;28;20385;-75
2024/03/07 08:31:20;;;;;;;;;;;;;;;;;;5045878;28;19920;-75
2024/03/07 08:33:47;;;;;;;;;;;;;;;;;;5046128;28;19913;-75
2024/03/07 08:36:12;;;;;;;;;;;;;;;;;;5046436;28;19920;-76
2024/03/07 08:38:39;;;;;;;;;;;;;;;;;;5048515;28;19917;-76
2024/03/07 08:41:05;;;;;;;;;;;;;;;;;;5049602;28;19969;-75
2024/03/07 08:43:31;;;;;;;;;;;;;;;;;;5056329;28;20337;-76
2024/03/07 08:45:57;;;;;;;;;;;;;;;;;;5051023;28;19937;-76
2024/03/07 08:48:23;;;;;;;;;;;;;;;;;;5049242;28;19921;-76
2024/03/07 08:50:48;;;;;;;;;;;;;;;;;;5050016;28;20542;-76
2024/03/07 08:53:14;;;;;;;;;;;;;;;;;;5050500;28;19917;-76
2024/03/07 08:55:40;;;;;;;;;;;;;;;;;;5050553;28;19917;-76
2024/03/07 08:58:06;;;;;;;;;;;;;;;;;;5051112;28;20004;-76
2024/03/07 09:00:32;;;;;;;;;;;;;;;;;;5040359;28;19917;-76
2024/03/07 09:02:58;;;;;;;;;;;;;;;;;;5047911;28;19960;-77
2024/03/07 09:05:24;;;;;;;;;;;;;;;;;;5045047;28;19913;-76
2024/03/07 09:07:49;;;;;;;;;;;;;;;;;;5049635;28;19928;-76
2024/03/07 09:10:15;;;;;;;;;;;;;;;;;;5052657;28;19963;-76
2024/03/07 09:12:41;;;;;;;;;;;;;;;;;;5046716;28;20531;-76
2024/03/07 09:15:10;;;;;;;;;;;;;;;;;;5045456;28;19912;-77
2024/03/07 09:17:36;;;;;;;;;;;;;;;;;;5042808;28;19916;-77
2024/03/07 09:20:03;;;;;;;;;;;;;;;;;;5044234;28;19947;-77
2024/03/07 09:22:29;;;;;;;;;;;;;;;;;;5042918;28;19940;-76
2024/03/07 09:24:55;;;;;;;;;;;;;;;;;;5048335;28;19927;-76
2024/03/07 09:27:21;;;;;;;;;;;;;;;;;;5048066;28;19920;-76
2024/03/07 09:29:47;;;;;;;;;;;;;;;;;;5046758;28;19916;-76
2024/03/07 09:32:13;;;;;;;;;;;;;;;;;;5047250;28;19917;-76
2024/03/07 09:34:39;;;;;;;;;;;;;;;;;;5049896;28;19947;-74
2024/03/07 09:37:07;;;;;;;;;;;;;;;;;;5050394;28;20359;-76
2024/03/07 09:39:34;;;;;;;;;;;;;;;;;;5049966;28;19917;-76
2024/03/07 09:42:00;;;;;;;;;;;;;;;;;;5046086;28;19975;-76
2024/03/07 09:44:26;;;;;;;;;;;;;;;;;;5049983;28;19913;-76
2024/03/07 09:46:52;;;;;;;;;;;;;;;;;;5048191;28;19977;-76
2024/03/07 09:49:18;;;;;;;;;;;;;;;;;;5049057;28;19909;-77
2024/03/07 09:51:44;;;;;;;;;;;;;;;;;;5049926;28;19977;-76
2024/03/07 09:54:10;;;;;;;;;;;;;;;;;;5050127;28;19908;-76
2024/03/07 09:56:36;;;;;;;;;;;;;;;;;;5048406;28;20360;-77
2024/03/07 09:59:03;;;;;;;;;;;;;;;;;;5049743;28;19909;-77
2024/03/07 10:01:28;;;;;;;;;;;;;;;;;;5049387;28;19916;-76
2024/03/07 10:03:54;;;;;;;;;;;;;;;;;;5049962;28;19938;-77
2024/03/07 10:06:21;;;;;;;;;;;;;;;;;;5048588;28;19919;-76
2024/03/07 10:08:47;;;;;;;;;;;;;;;;;;5049197;28;19913;-76
2024/03/07 10:11:14;;;;;;;;;;;;;;;;;;5048594;28;20389;-77
2024/03/07 10:13:40;;;;;;;;;;;;;;;;;;5049539;28;19913;-76
2024/03/07 10:16:07;;;;;;;;;;;;;;;;;;5048848;28;19944;-77
2024/03/07 10:18:34;;;;;;;;;;;;;;;;;;5049342;28;19983;-77
2024/03/07 10:21:01;;;;;;;;;;;;;;;;;;5050294;28;19913;-76
2024/03/07 10:23:26;;;;;;;;;;;;;;;;;;5069276;28;19978;-76
2024/03/07 10:25:55;;;;;;;;;;;;;;;;;;5065179;28;20333;-77
2024/03/07 10:28:20;;;;;;;;;;;;;;;;;;5049238;28;19919;-77
2024/03/07 10:30:47;;;;;;;;;;;;;;;;;;5049094;28;19999;-76
2024/03/07 10:33:13;;;;;;;;;;;;;;;;;;5040522;28;20011;-76
2024/03/07 10:35:39;;;;;;;;;;;;;;;;;;5046336;28;20417;-76
2024/03/07 10:38:11;;;;;;;;;;;;;;;;;;5048792;28;19913;-76
2024/03/07 10:40:40;;;;;;;;;;;;;;;;;;5048927;28;19924;-76
2024/03/07 10:43:09;;;;;;;;;;;;;;;;;;5049678;28;19913;-76
2024/03/07 10:45:35;;;;;;;;;;;;;;;;;;5048495;28;20031;-75
2024/03/07 10:48:01;;;;;;;;;;;;;;;;;;5048053;28;20015;-76
2024/03/07 10:50:27;;;;;;;;;;;;;;;;;;5040991;28;19996;-77
2024/03/07 10:52:53;;;;;;;;;;;;;;;;;;5048658;28;19917;-76
2024/03/07 10:55:21;;;;;;;;;;;;;;;;;;5047239;28;19920;-76
2024/03/07 10:57:46;;;;;;;;;;;;;;;;;;5048558;28;19967;-76
2024/03/07 11:00:35;;;;;;;;;;;;;;;;;;5045451;28;20410;-76
2024/03/07 11:03:02;;;;;;;;;;;;;;;;;;5043145;28;19923;-76
2024/03/07 11:05:31;;;;;;;;;;;;;;;;;;5067430;28;19908;-76
2024/03/07 11:07:57;;;;;;;;;;;;;;;;;;5046791;28;20209;-76
2024/03/07 11:10:23;;;;;;;;;;;;;;;;;;5047910;28;20004;-76
2024/03/07 11:12:51;;;;;;;;;;;;;;;;;;5047584;28;19913;-76
2024/03/07 11:15:19;;;;;;;;;;;;;;;;;;5048618;28;19948;-76
2024/03/07 11:17:46;;;;;;;;;;;;;;;;;;5047444;28;20271;-76
2024/03/07 11:20:14;;;;;;;;;;;;;;;;;;5046463;28;19988;-76
2024/03/07 11:22:41;;;;;;;;;;;;;;;;;;5042217;28;19944;-76
2024/03/07 11:25:07;;;;;;;;;;;;;;;;;;5044107;28;19954;-77
2024/03/07 11:27:34;;;;;;;;;;;;;;;;;;5046632;28;19920;-76
2024/03/07 11:30:00;;;;;;;;;;;;;;;;;;5048462;28;19909;-76
2024/03/07 11:32:26;;;;;;;;;;;;;;;;;;5047077;28;19995;-76
2024/03/07 11:34:52;;;;;;;;;;;;;;;;;;5047627;28;19913;-76
2024/03/07 11:37:18;;;;;;;;;;;;;;;;;;5048188;28;20058;-76
2024/03/07 11:39:46;;;;;;;;;;;;;;;;;;5047816;28;19916;-76
2024/03/07 11:42:12;;;;;;;;;;;;;;;;;;5047303;28;19916;-76
2024/03/07 11:44:39;;;;;;;;;;;;;;;;;;5046637;28;19913;-76
2024/03/07 11:47:08;;;;;;;;;;;;;;;;;;5047886;28;19952;-76
2024/03/07 11:49:35;;;;;;;;;;;;;;;;;;5038890;28;19918;-77
2024/03/07 11:52:04;;;;;;;;;;;;;;;;;;5043908;28;19931;-77
2024/03/07 11:54:31;;;;;;;;;;;;;;;;;;5047912;28;19915;-76
2024/03/07 11:56:56;;;;;;;;;;;;;;;;;;5046872;28;19925;-77
2024/03/07 11:59:22;;;;;;;;;;;;;;;;;;5047521;28;20000;-77
2024/03/07 12:01:48;;;;;;;;;;;;;;;;;;5055860;28;20042;-76
2024/03/07 12:04:15;;;;;;;;;;;;;;;;;;5047841;28;19913;-76
2024/03/07 12:06:42;;;;;;;;;;;;;;;;;;5047607;28;20557;-77
2024/03/07 12:09:15;;;;;;;;;;;;;;;;;;5047870;28;19908;-77
2024/03/07 12:11:42;;;;;;;;;;;;;;;;;;5045618;28;20039;-77
2024/03/07 12:14:10;;;;;;;;;;;;;;;;;;5050281;28;19913;-77
2024/03/07 12:16:36;;;;;;;;;;;;;;;;;;5051504;28;19919;-77
2024/03/07 12:19:05;;;;;;;;;;;;;;;;;;5050073;28;19920;-76
2024/03/07 12:21:30;;;;;;;;;;;;;;;;;;5055318;28;19909;-76
2024/03/07 12:23:56;;;;;;;;;;;;;;;;;;5049085;28;19913;-77
2024/03/07 12:26:25;;;;;;;;;;;;;;;;;;5050943;28;20517;-77
2024/03/07 12:28:52;;;;;;;;;;;;;;;;;;5051291;28;20019;-77
2024/03/07 12:31:18;;;;;;;;;;;;;;;;;;5045876;28;19909;-77
2024/03/07 12:33:51;;;;;;;;;;;;;;;;;;5038409;28;20299;-76
2024/03/07 12:36:17;;;;;;;;;;;;;;;;;;5071487;28;19962;-76
2024/03/07 12:38:43;;;;;;;;;;;;;;;;;;5071058;28;19916;-76
2024/03/07 12:41:15;;;;;;;;;;;;;;;;;;5071490;28;19915;-76
2024/03/07 12:43:45;;;;;;;;;;;;;;;;;;5050804;28;19924;-77
2024/03/07 12:46:17;;;;;;;;;;;;;;;;;;5051508;28;19916;-77
2024/03/07 12:48:44;;;;;;;;;;;;;;;;;;5041988;28;19916;-80
2024/03/07 12:51:10;;;;;;;;;;;;;;;;;;5041757;28;19913;-77
2024/03/07 12:53:36;;;;;;;;;;;;;;;;;;5047317;28;19923;-76
2024/03/07 12:56:03;;;;;;;;;;;;;;;;;;5047600;28;20475;-76
2024/03/07 12:58:30;;;;;;;;;;;;;;;;;;5048663;28;19916;-76
2024/03/07 13:00:56;;;;;;;;;;;;;;;;;;5051100;28;20047;-76
2024/03/07 13:03:21;;;;;;;;;;;;;;;;;;5050861;28;20003;-76
2024/03/07 13:05:47;;;;;;;;;;;;;;;;;;5050691;28;19913;-75
2024/03/07 13:08:13;;;;;;;;;;;;;;;;;;5050609;28;19928;-76
2024/03/07 13:10:39;;;;;;;;;;;;;;;;;;5046553;28;19916;-75
2024/03/07 13:13:05;;;;;;;;;;;;;;;;;;5050490;28;19924;-76
2024/03/07 13:15:31;;;;;;;;;;;;;;;;;;5049938;28;20287;-75
2024/03/07 13:17:57;;;;;;;;;;;;;;;;;;5050764;28;19936;-76
2024/03/07 13:20:26;;;;;;;;;;;;;;;;;;5049498;28;20002;-76
2024/03/07 13:22:52;;;;;;;;;;;;;;;;;;5049939;28;20342;-76
2024/03/07 13:25:17;;;;;;;;;;;;;;;;;;5050705;28;20000;-76
2024/03/07 13:27:43;;;;;;;;;;;;;;;;;;5049273;28;20302;-76
2024/03/07 13:30:13;;;;;;;;;;;;;;;;;;5050503;28;19908;-76
2024/03/07 13:32:39;;;;;;;;;;;;;;;;;;5050432;28;19952;-76
2024/03/07 13:35:11;;;;;;;;;;;;;;;;;;5049872;28;19998;-76
2024/03/07 13:37:37;;;;;;;;;;;;;;;;;;5049782;28;20291;-76
2024/03/07 13:40:22;;;;;;;;;;;;;;;;;;5050326;28;19912;-76
2024/03/07 13:42:48;;;;;;;;;;;;;;;;;;5048577;28;19916;-76
2024/03/07 13:45:14;;;;;;;;;;;;;;;;;;5070431;28;19934;-76
2024/03/07 13:47:40;;;;;;;;;;;;;;;;;;5060989;28;19912;-76
2024/03/07 13:50:11;;;;;;;;;;;;;;;;;;5049766;28;19955;-76
2024/03/07 13:52:43;;;;;;;;;;;;;;;;;;5049973;28;20384;-76
2024/03/07 13:55:11;;;;;;;;;;;;;;;;;;5050014;28;20326;-76
2024/03/07 13:57:40;;;;;;;;;;;;;;;;;;5049145;28;19971;-77
2024/03/07 14:00:14;;;;;;;;;;;;;;;;;;5065430;28;19909;-76
2024/03/07 14:02:39;;;;;;;;;;;;;;;;;;5069994;28;19908;-76
2024/03/07 14:05:12;;;;;;;;;;;;;;;;;;5069904;28;20589;-76
2024/03/07 14:07:38;;;;;;;;;;;;;;;;;;5054036;28;19920;-76
2024/03/07 14:10:16;;;;;;;;;;;;;;;;;;5049974;28;19913;-76
2024/03/07 14:12:43;;;;;;;;;;;;;;;;;;5048806;28;19951;-76
2024/03/07 14:15:10;;;;;;;;;;;;;;;;;;5051746;28;19955;-77
2024/03/07 14:17:36;;;;;;;;;;;;;;;;;;5049024;28;20012;-74
2024/03/07 14:20:02;;;;;;;;;;;;;;;;;;5049429;28;19999;-75
2024/03/07 14:22:32;;;;;;;;;;;;;;;;;;5062210;28;19913;-74
2024/03/07 14:24:57;;;;;;;;;;;;;;;;;;5048530;28;19913;-75
2024/03/07 14:27:23;;;;;;;;;;;;;;;;;;5048767;28;19921;-75
2024/03/07 14:29:49;;;;;;;;;;;;;;;;;;5049400;28;20182;-76
2024/03/07 14:32:15;;;;;;;;;;;;;;;;;;5049631;28;20386;-76
2024/03/07 14:34:42;;;;;;;;;;;;;;;;;;5048049;28;20451;-74
2024/03/07 14:37:08;;;;;;;;;;;;;;;;;;5043428;28;20048;-76
2024/03/07 14:39:35;;;;;;;;;;;;;;;;;;5069223;28;19991;-76
2024/03/07 14:42:01;;;;;;;;;;;;;;;;;;5057971;28;19909;-75
2024/03/07 14:44:27;;;;;;;;;;;;;;;;;;5048877;28;19913;-76
2024/03/07 14:46:54;;;;;;;;;;;;;;;;;;5048896;28;19917;-75
2024/03/07 14:49:20;;;;;;;;;;;;;;;;;;5047921;28;19919;-76
2024/03/07 14:51:45;;;;;;;;;;;;;;;;;;5048487;28;20410;-75
2024/03/07 14:54:11;;;;;;;;;;;;;;;;;;5043254;28;19998;-74
2024/03/07 14:56:37;;;;;;;;;;;;;;;;;;5046168;28;19975;-75
2024/03/07 14:59:05;;;;;;;;;;;;;;;;;;5043035;28;19916;-76
2024/03/07 15:01:33;;;;;;;;;;;;;;;;;;5044493;28;20026;-75
2024/03/07 15:03:59;;;;;;;;;;;;;;;;;;5047205;28;19947;-76
2024/03/07 15:06:25;;;;;;;;;;;;;;;;;;5048780;28;19952;-75
2024/03/07 15:08:53;;;;;;;;;;;;;;;;;;5047767;28;19917;-79
2024/03/07 15:11:20;;;;;;;;;;;;;;;;;;5042108;28;19913;-76
2024/03/07 15:13:46;;;;;;;;;;;;;;;;;;5045864;28;20371;-75
2024/03/07 15:16:37;;;;;;;;;;;;;;;;;;5057238;28;19924;-76
2024/03/07 15:19:03;;;;;;;;;;;;;;;;;;5062340;28;19962;-77
2024/03/07 15:21:29;;;;;;;;;;;;;;;;;;5060506;28;19949;-77
2024/03/07 15:27:33;;;;;;;11.52;6.22;;;;;;;;;;5101940;27;20499;-39
2024/03/07 15:34:26;;;;;;;;;;;;;;;;;;4768436;27;7969458;-64
2024/03/07 15:36:53;;;;;;;;;;;;;;;;;;5032197;28;19983;-63
2024/03/07 15:39:26;;;;;;;;;;;;;;;;;;5028258;28;20386;-63
2024/03/07 15:41:53;;;;;;;;;;;;;;;;;;5016495;28;19912;-64
2024/03/07 15:50:42;;;;;;;11.38;5.70;;;;;;;;;;5082476;28;20035;-61
2024/03/07 15:53:11;;;;;;;15.68;6.60;;;;;;;;;;5072266;28;20033;-61
2024/03/07 15:55:43;;;;;;;14.45;6.65;;;;;;;;;;5081964;28;20035;-73
2024/03/07 15:58:32;;;;;;;16.40;6.40;;;;;;;;;;5065470;28;20040;-65
2024/03/07 16:01:02;;;;;;;15.52;5.95;;;;;;;;;;5080197;28;20036;-69
2024/03/07 16:03:40;;;;;;;12.88;5.53;;;;;;;;;;5083123;28;20040;-65
2024/03/07 16:06:32;;;;;;;13.60;5.60;;;;;;;;;;5076666;28;20046;-72
2024/03/07 16:09:25;;;;;;;11.02;5.85;;;;;;;;;;5074654;28;20039;-66
2024/03/07 16:12:15;;;;;;;15.70;5.63;;;;;;;;;;5075917;28;20048;-68
2024/03/07 16:18:02;;;;;;;12.40;5.03;;;;;;;;;;5066208;28;20054;-66
2024/03/07 16:20:35;;;;;;;13.15;5.20;;;;;;;;;;5061649;28;20040;-68
2024/03/07 16:23:04;;;;;;;;;;;;;;;;;;5045974;28;20025;-65
2024/03/07 16:25:31;;;;;;;12.32;5.00;;;;;;;;;;5059805;28;19920;-67
2024/03/07 16:27:58;;;;;;;11.63;5.47;;;;;;;;;;5064647;28;20025;-67
2024/03/07 16:30:26;;;;;;;10.07;5.05;;;;;;;;;;5065474;28;20035;-71
2024/03/07 16:33:00;;;;;;;9.38;4.97;;;;;;;;;;5065530;28;20021;-71
2024/03/07 16:35:30;;;;;;;8.68;4.47;;;;;;;;;;5066312;28;20028;-64
2024/03/07 16:37:58;;;;;;;11.32;4.93;;;;;;;;;;5064018;28;20097;-64
2024/03/07 16:40:26;;;;;;;12.45;5.22;;;;;;;;;;5055916;28;20024;-63
2024/03/07 16:42:55;;;;;;;11.85;4.70;;;;;;;;;;5070296;28;20107;-63
2024/03/07 16:45:25;;;;;;;9.88;4.97;;;;;;;;;;5072724;28;20495;-64
2024/03/07 16:48:09;;;;;;;10.43;4.75;;;;;;;;;;5067818;28;20615;-64
2024/03/07 16:50:40;;;;;;;10.27;4.55;;;;;;;;;;5064119;28;20028;-64
2024/03/07 16:53:16;;;;;;;13.40;5.32;;;;;;;;;;5074920;28;20028;-65